Time;durP1;ratioP1;P1;durP2;ratioP2;P2;SDS_P1;SDS_P2;PMS_P1;PMS_P2;Temp;Humidity;BMP_temperature;BMP_pressure;BME280_temperature;BME280_humidity;BME280_pressure;Samples;Min_cycle;Max_cycle;Signal;HPM_P1;HPM_P2
2021/12/04 15:39:15;;;;;;;10.80;9.18;;;;;;;;;;10555220;28;20246;-65
2021/12/04 15:44:38;;;;;;;12.25;10.10;;;;;;;;;;10559139;28;20743;-65
2021/12/04 15:50:10;;;;;;;16.88;12.35;;;;;;;;;;10555550;28;20729;-65
2021/12/04 15:55:14;;;;;;;10.50;8.45;;;;;;;;;;10530154;28;20197;-65
2021/12/04 16:00:16;;;;;;;9.23;7.22;;;;;;;;;;10539517;28;20225;-66
2021/12/04 16:05:24;;;;;;;8.35;7.47;;;;;;;;;;10554767;28;20604;-64
2021/12/04 16:10:25;;;;;;;11.43;8.18;;;;;;;;;;10557377;28;20172;-65
2021/12/04 16:15:27;;;;;;;12.25;8.75;;;;;;;;;;10558830;28;20266;-65
2021/12/04 16:20:30;;;;;;;9.50;7.82;;;;;;;;;;10535792;28;20243;-65
2021/12/04 16:25:36;;;;;;;8.20;6.88;;;;;;;;;;10565735;28;20189;-65
2021/12/04 16:31:11;;;;;;;9.65;8.65;;;;;;;;;;10566161;27;20669;-66
2021/12/04 16:41:32;;;;;;;11.73;9.38;;;;;;;;;;10562898;28;20204;-66
2021/12/04 16:46:38;;;;;;;12.02;10.02;;;;;;;;;;10564913;28;20227;-66
2021/12/04 16:57:19;;;;;;;13.85;9.60;;;;;;;;;;10562558;28;20209;-66
2021/12/04 17:02:26;;;;;;;12.43;10.85;;;;;;;;;;10564880;27;20208;-66
2021/12/04 17:07:27;;;;;;;14.15;11.35;;;;;;;;;;10562764;28;20189;-66
2021/12/04 17:12:28;;;;;;;16.23;11.60;;;;;;;;;;10563204;28;20185;-66
2021/12/04 17:17:31;;;;;;;15.63;12.10;;;;;;;;;;10563044;28;20294;-66
2021/12/04 17:22:32;;;;;;;16.50;12.75;;;;;;;;;;10564535;28;20604;-66
2021/12/04 17:27:33;;;;;;;19.80;14.95;;;;;;;;;;10560232;28;20277;-66
2021/12/04 17:32:35;;;;;;;18.33;14.13;;;;;;;;;;10561471;27;20216;-66
2021/12/04 17:37:36;;;;;;;16.52;12.98;;;;;;;;;;10561354;28;20228;-66
2021/12/04 17:42:38;;;;;;;23.33;18.88;;;;;;;;;;10556617;28;20189;-66
2021/12/04 17:47:42;;;;;;;24.15;18.17;;;;;;;;;;10528105;28;20205;-66
2021/12/04 17:52:44;;;;;;;23.75;18.98;;;;;;;;;;10557703;28;20184;-66
2021/12/04 17:57:45;;;;;;;21.25;15.98;;;;;;;;;;10557563;28;20823;-65
2021/12/04 18:02:49;;;;;;;18.02;14.52;;;;;;;;;;10556973;28;20219;-65
2021/12/04 18:07:50;;;;;;;17.20;13.27;;;;;;;;;;10558249;28;20185;-65
2021/12/04 18:12:53;;;;;;;22.00;15.90;;;;;;;;;;10557724;28;20181;-65
2021/12/04 18:17:55;;;;;;;15.25;12.70;;;;;;;;;;10530895;28;20717;-65
2021/12/04 18:22:56;;;;;;;21.67;16.77;;;;;;;;;;10556872;27;20181;-66
2021/12/04 18:27:57;;;;;;;16.95;13.75;;;;;;;;;;10556693;27;20204;-66
2021/12/04 18:33:02;;;;;;;19.85;15.00;;;;;;;;;;10558108;28;20303;-67
2021/12/04 18:38:04;;;;;;;22.50;15.93;;;;;;;;;;10552979;28;20207;-66
2021/12/04 18:43:05;;;;;;;21.88;17.65;;;;;;;;;;10525447;28;20185;-66
2021/12/04 18:48:06;;;;;;;19.85;15.05;;;;;;;;;;10553864;28;20240;-67
2021/12/04 18:53:08;;;;;;;25.63;20.30;;;;;;;;;;10557273;28;20184;-67
2021/12/04 18:58:09;;;;;;;31.13;23.08;;;;;;;;;;10559842;27;20269;-67
2021/12/04 19:03:11;;;;;;;25.23;16.92;;;;;;;;;;10555771;28;20212;-68
2021/12/04 19:08:13;;;;;;;17.08;14.07;;;;;;;;;;10560291;28;20596;-67
2021/12/04 19:13:14;;;;;;;14.48;11.77;;;;;;;;;;10557909;28;20265;-67
2021/12/04 19:18:15;;;;;;;15.98;12.77;;;;;;;;;;10557664;27;20216;-67
2021/12/04 19:23:17;;;;;;;15.65;13.20;;;;;;;;;;10545397;28;20200;-66
2021/12/04 19:28:19;;;;;;;14.18;12.07;;;;;;;;;;10559737;28;20181;-67
2021/12/04 19:50:02;;;;;;;17.83;12.35;;;;;;;;;;10557754;28;20220;-69
2021/12/04 19:55:02;;;;;;;18.42;14.70;;;;;;;;;;10565673;28;20185;-69
2021/12/04 20:00:06;;;;;;;15.98;12.48;;;;;;;;;;10560111;28;20188;-68
2021/12/04 20:15:48;;;;;;;24.77;19.17;;;;;;;;;;10564828;28;20258;-70
2021/12/04 20:20:57;;;;;;;23.15;16.08;;;;;;;;;;10565265;28;20553;-68
2021/12/04 20:26:03;;;;;;;21.83;16.35;;;;;;;;;;10535123;28;20208;-68
2021/12/04 20:31:10;;;;;;;24.98;16.83;;;;;;;;;;10566530;28;20952;-65
2021/12/04 20:36:55;;;;;;;25.38;18.05;;;;;;;;;;10557814;28;20236;-66
2021/12/04 21:08:04;;;;;;;22.27;15.52;;;;;;;;;;10558968;28;20200;-67
2021/12/04 21:26:47;;;;;;;31.95;15.55;;;;;;;;;;10560455;28;20230;-67
2021/12/04 21:43:16;;;;;;;25.25;15.48;;;;;;;;;;10534136;28;20288;-68
2021/12/04 21:50:44;;;;;;;24.52;14.98;;;;;;;;;;10521529;28;20197;-68
2021/12/04 22:12:45;;;;;;;24.55;15.65;;;;;;;;;;10517796;28;20709;-67
2021/12/04 22:17:28;;;;;;;21.90;15.45;;;;;;;;;;10499730;28;20221;-68
2021/12/04 22:59:43;;;;;;;27.75;17.13;;;;;;;;;;10560068;28;20258;-66
2021/12/04 23:15:36;;;;;;;31.98;18.35;;;;;;;;;;10556953;28;20296;-66
2021/12/04 23:37:04;;;;;;;33.97;18.70;;;;;;;;;;10558334;28;20269;-66
